Aviation Digital Data Service (ADDS)

Output produced by METARs form (0741 UTC 28 February 2017)
found at http://aviationweather.gov/adds/metars/
 
KMHT 280525Z 2806/0106 VRB02KT P6SM FEW090 
     FM281200 09002KT P6SM SCT025 BKN050 
     FM010000 13005KT 4SM -RA BR OVC015